createdAt,value
2018-03-11T00:02:10.707Z,30.37
2018-03-11T00:04:39.056Z,31.50
2018-03-11T00:07:07.476Z,31.77
2018-03-11T00:09:35.870Z,33.67
2018-03-11T00:12:04.210Z,33.57
2018-03-11T00:14:32.549Z,34.03
2018-03-11T00:17:00.939Z,33.87
2018-03-11T00:19:29.268Z,35.37
2018-03-11T00:21:57.580Z,34.13
2018-03-11T00:24:25.914Z,36.43
2018-03-11T00:26:54.519Z,33.83
2018-03-11T00:29:22.858Z,35.60
2018-03-11T00:31:51.219Z,37.93
2018-03-11T00:34:19.564Z,35.53
2018-03-11T00:36:47.886Z,38.77
2018-03-11T00:39:20.236Z,35.87
2018-03-11T00:41:48.553Z,36.77
2018-03-11T00:44:16.940Z,38.63
2018-03-11T00:46:50.891Z,36.63
2018-03-11T00:49:19.218Z,38.13
2018-03-11T00:51:47.542Z,38.73
2018-03-11T00:54:16.917Z,36.67
2018-03-11T00:56:45.232Z,38.23
2018-03-11T00:59:13.561Z,35.23
2018-03-11T01:01:41.932Z,34.40
2018-03-11T01:04:10.344Z,38.30
2018-03-11T01:06:38.701Z,38.20
2018-03-11T01:09:07.038Z,38.23
2018-03-11T01:11:35.353Z,39.13
2018-03-11T01:14:03.697Z,36.20
2018-03-11T01:16:32.019Z,38.37
2018-03-11T01:19:00.357Z,37.83
2018-03-11T01:21:28.754Z,39.97
2018-03-11T01:23:57.105Z,37.57
2018-03-11T01:26:25.428Z,39.40
2018-03-11T01:28:53.766Z,38.37
2018-03-11T01:31:22.119Z,40.27
2018-03-11T01:33:50.442Z,39.77
2018-03-11T01:36:18.774Z,39.87
2018-03-11T01:38:47.122Z,35.97
2018-03-11T01:41:15.486Z,37.17
2018-03-11T01:43:44.116Z,39.23
2018-03-11T01:46:12.453Z,38.97
2018-03-11T01:48:40.786Z,37.43
2018-03-11T01:51:09.123Z,37.47
2018-03-11T01:53:37.488Z,36.70
2018-03-11T01:56:06.174Z,34.10
2018-03-11T01:58:34.493Z,36.30
2018-03-11T02:01:03.577Z,35.20
2018-03-11T02:03:31.912Z,37.63
2018-03-11T02:06:00.253Z,36.00
2018-03-11T02:08:28.602Z,33.47
2018-03-11T02:10:56.934Z,32.43
2018-03-11T02:13:25.282Z,32.83
2018-03-11T02:15:53.614Z,32.40
2018-03-11T02:18:22.025Z,31.23
2018-03-11T02:20:50.414Z,32.67
2018-03-11T02:23:18.740Z,33.10
2018-03-11T02:25:47.098Z,32.53
2018-03-11T02:28:15.425Z,29.93
2018-03-11T02:30:43.763Z,31.73
2018-03-11T02:33:12.101Z,29.97
2018-03-11T02:35:40.482Z,28.80
2018-03-11T02:38:08.964Z,29.93
2018-03-11T02:40:37.294Z,30.80
2018-03-11T02:43:05.639Z,28.37
2018-03-11T02:45:33.970Z,27.77
2018-03-11T02:48:02.297Z,28.03
2018-03-11T02:50:30.628Z,29.23
2018-03-11T02:52:58.962Z,27.77
2018-03-11T02:55:27.332Z,26.73
2018-03-11T02:57:55.703Z,26.17
2018-03-11T03:00:24.023Z,29.07
2018-03-11T03:02:52.890Z,25.70
2018-03-11T03:05:21.217Z,28.23
2018-03-11T03:07:49.573Z,28.27
2018-03-11T03:10:17.895Z,27.40
2018-03-11T03:12:46.229Z,24.93
2018-03-11T03:15:14.548Z,24.93
2018-03-11T03:17:42.894Z,26.20
2018-03-11T03:20:11.214Z,27.23
2018-03-11T03:22:39.557Z,26.10
2018-03-11T03:25:07.877Z,26.97
2018-03-11T03:27:36.212Z,28.80
2018-03-11T03:30:04.543Z,30.00
2018-03-11T03:32:32.864Z,31.17
2018-03-11T03:35:01.194Z,32.33
2018-03-11T03:37:29.513Z,34.60
2018-03-11T03:39:57.850Z,31.97
2018-03-11T03:42:26.203Z,33.40
2018-03-11T03:44:54.535Z,35.60
2018-03-11T03:47:22.924Z,35.30
2018-03-11T03:49:51.316Z,35.67
2018-03-11T03:52:19.711Z,34.17
2018-03-11T03:54:48.049Z,33.50
2018-03-11T03:57:16.428Z,36.50
2018-03-11T03:59:44.752Z,33.40
2018-03-11T04:02:13.181Z,35.83
2018-03-11T04:04:41.515Z,35.87
2018-03-11T04:07:09.954Z,36.17
2018-03-11T04:09:38.488Z,37.10
2018-03-11T04:12:06.784Z,37.83
2018-03-11T04:14:35.118Z,35.53
2018-03-11T04:17:03.436Z,36.33
2018-03-11T04:19:31.770Z,36.17
2018-03-11T04:22:00.125Z,34.07
2018-03-11T04:24:29.229Z,33.73
2018-03-11T04:26:57.932Z,32.60
2018-03-11T04:29:26.309Z,32.83
2018-03-11T04:31:54.661Z,34.03
2018-03-11T04:34:22.992Z,35.27
2018-03-11T04:36:51.335Z,34.97
2018-03-11T04:39:19.644Z,34.17
2018-03-11T04:41:47.985Z,33.60
2018-03-11T04:44:16.933Z,33.27
2018-03-11T04:46:45.262Z,32.73
2018-03-11T04:49:13.571Z,30.17
2018-03-11T04:51:41.926Z,31.53
2018-03-11T04:54:10.235Z,32.50
2018-03-11T04:56:38.559Z,30.27
2018-03-11T04:59:07.169Z,29.23
2018-03-11T05:01:35.496Z,28.00
2018-03-11T05:04:03.816Z,27.67
2018-03-11T05:06:32.150Z,27.93
2018-03-11T05:09:00.549Z,27.13
2018-03-11T05:11:28.885Z,27.77
2018-03-11T05:13:57.214Z,26.17
2018-03-11T05:16:25.819Z,27.20
2018-03-11T05:18:54.264Z,27.00
2018-03-11T05:21:22.595Z,23.90
2018-03-11T05:23:51.521Z,24.37
2018-03-11T05:26:19.854Z,24.97
2018-03-11T05:28:48.298Z,24.63
2018-03-11T05:31:17.512Z,22.93
2018-03-11T05:33:45.900Z,23.27
2018-03-11T05:36:14.289Z,23.73
2018-03-11T05:38:42.628Z,22.57
2018-03-11T05:41:10.952Z,21.33
2018-03-11T05:43:39.361Z,23.43
2018-03-11T05:46:07.698Z,21.37
2018-03-11T05:48:36.020Z,23.03
2018-03-11T05:51:04.438Z,19.87
2018-03-11T05:53:32.827Z,23.83
2018-03-11T05:56:01.163Z,21.83
2018-03-11T05:58:29.489Z,21.50
2018-03-11T06:00:57.824Z,22.33
2018-03-11T06:03:26.147Z,21.20
2018-03-11T06:05:54.493Z,20.50
2018-03-11T06:08:22.894Z,18.73
2018-03-11T06:10:51.223Z,18.80
2018-03-11T06:13:19.715Z,18.37
2018-03-11T06:15:48.035Z,19.53
2018-03-11T06:18:16.362Z,18.80
2018-03-11T06:20:44.694Z,17.47
2018-03-11T06:23:13.108Z,19.63
2018-03-11T06:25:41.518Z,18.93
2018-03-11T06:28:09.874Z,18.07
2018-03-11T06:30:38.228Z,18.83
2018-03-11T06:33:07.093Z,18.27
2018-03-11T06:35:35.441Z,18.53
2018-03-11T06:38:03.776Z,19.10
2018-03-11T06:40:33.231Z,18.97
2018-03-11T06:43:01.570Z,19.23
2018-03-11T06:45:29.900Z,20.90
2018-03-11T06:47:58.264Z,20.33
2018-03-11T06:50:26.731Z,20.30
2018-03-11T06:52:55.169Z,20.87
2018-03-11T06:55:23.686Z,19.97
2018-03-11T06:57:52.071Z,21.30
2018-03-11T07:00:20.424Z,20.13
2018-03-11T07:02:49.848Z,21.13
2018-03-11T07:05:18.182Z,19.57
2018-03-11T07:07:46.706Z,19.83
2018-03-11T07:10:15.143Z,19.67
2018-03-11T07:12:43.481Z,20.60
2018-03-11T07:15:11.811Z,19.43
2018-03-11T07:17:40.142Z,19.70
2018-03-11T07:20:10.184Z,20.20
2018-03-11T07:22:38.786Z,20.73
2018-03-11T07:25:07.197Z,18.50
2018-03-11T07:27:35.515Z,20.73
2018-03-11T07:30:03.882Z,21.00
2018-03-11T07:32:32.225Z,20.13
2018-03-11T07:35:00.559Z,20.60
2018-03-11T07:37:28.915Z,20.27
2018-03-11T07:39:57.217Z,22.33
2018-03-11T07:42:25.553Z,18.80
2018-03-11T07:44:53.904Z,20.40
2018-03-11T07:47:23.090Z,19.27
2018-03-11T07:49:52.142Z,18.90
2018-03-11T07:52:20.491Z,19.30
2018-03-11T07:54:48.818Z,18.97
2018-03-11T07:57:17.133Z,17.20
2018-03-11T07:59:45.455Z,17.67
2018-03-11T08:02:13.818Z,17.00
2018-03-11T08:04:42.176Z,18.10
2018-03-11T08:07:10.569Z,17.50
2018-03-11T08:09:38.933Z,15.57
2018-03-11T08:12:07.250Z,16.10
2018-03-11T08:14:35.622Z,14.80
2018-03-11T08:17:03.942Z,15.87
2018-03-11T08:19:32.303Z,13.07
2018-03-11T08:22:00.709Z,12.63
2018-03-11T08:24:29.113Z,12.97
2018-03-11T08:26:57.444Z,11.73
2018-03-11T08:29:25.834Z,11.60
2018-03-11T08:31:54.277Z,12.47
2018-03-11T08:34:22.681Z,12.50
2018-03-11T08:36:51.072Z,11.83
2018-03-11T08:39:19.413Z,11.13
2018-03-11T08:41:47.745Z,10.80
2018-03-11T08:44:16.106Z,11.23
2018-03-11T08:46:44.520Z,11.50
2018-03-11T08:49:12.980Z,10.97
2018-03-11T08:51:41.317Z,11.10
2018-03-11T08:54:09.659Z,10.60
2018-03-11T08:56:37.978Z,12.20
2018-03-11T08:59:06.345Z,11.27
2018-03-11T09:01:34.659Z,10.87
2018-03-11T09:04:02.994Z,10.90
2018-03-11T09:06:31.365Z,11.30
2018-03-11T09:08:59.789Z,10.30
2018-03-11T09:11:28.109Z,10.37
2018-03-11T09:13:56.435Z,9.77
2018-03-11T09:16:24.764Z,10.53
2018-03-11T09:18:53.138Z,9.83
2018-03-11T09:21:21.511Z,9.60
2018-03-11T09:23:50.408Z,10.43
2018-03-11T09:26:18.799Z,9.37
2018-03-11T09:28:47.171Z,9.50
2018-03-11T09:31:15.502Z,10.27
2018-03-11T09:33:43.862Z,9.23
2018-03-11T09:36:12.558Z,10.87
2018-03-11T09:38:40.964Z,10.37
2018-03-11T09:41:09.268Z,8.80
2018-03-11T09:43:37.592Z,10.00
2018-03-11T09:46:06.456Z,10.17
2018-03-11T09:48:34.774Z,9.33
2018-03-11T09:51:03.116Z,9.43
2018-03-11T09:53:31.430Z,9.33
2018-03-11T09:55:59.911Z,9.20
2018-03-11T09:58:28.277Z,9.47
2018-03-11T10:00:56.682Z,8.87
2018-03-11T10:03:25.068Z,9.37
2018-03-11T10:05:53.427Z,9.10
2018-03-11T10:08:21.742Z,9.37
2018-03-11T10:10:50.345Z,9.73
2018-03-11T10:13:18.654Z,8.43
2018-03-11T10:15:47.030Z,8.77
2018-03-11T10:18:15.381Z,9.63
2018-03-11T10:20:43.816Z,9.83
2018-03-11T10:23:12.248Z,9.10
2018-03-11T10:25:40.591Z,10.00
2018-03-11T10:28:08.980Z,9.23
2018-03-11T10:30:37.318Z,10.77
2018-03-11T10:33:05.638Z,10.13
2018-03-11T10:35:34.060Z,8.70
2018-03-11T10:38:02.451Z,8.63
2018-03-11T10:40:30.830Z,8.83
2018-03-11T10:42:59.185Z,7.87
2018-03-11T10:45:27.494Z,9.67
2018-03-11T10:47:55.895Z,10.07
2018-03-11T10:50:24.294Z,9.30
2018-03-11T10:52:52.705Z,9.50
2018-03-11T10:55:21.088Z,9.03
2018-03-11T10:57:49.496Z,9.60
2018-03-11T11:00:17.801Z,8.97
2018-03-11T11:02:46.125Z,9.03
2018-03-11T11:05:14.470Z,8.13
2018-03-11T11:07:42.794Z,9.07
2018-03-11T11:10:13.298Z,8.27
2018-03-11T11:12:41.659Z,8.93
2018-03-11T11:15:09.964Z,7.83
2018-03-11T11:17:38.300Z,9.17
2018-03-11T11:20:06.615Z,7.57
2018-03-11T11:22:34.955Z,8.67
2018-03-11T11:25:03.280Z,8.57
2018-03-11T11:27:31.600Z,8.07
2018-03-11T11:29:59.927Z,6.90
2018-03-11T11:32:28.280Z,6.80
2018-03-11T11:34:56.595Z,7.30
2018-03-11T11:37:24.974Z,7.20
2018-03-11T11:39:53.284Z,6.87
2018-03-11T11:42:21.610Z,6.77
2018-03-11T11:44:50.147Z,7.03
2018-03-11T11:47:18.752Z,6.20
2018-03-11T11:49:47.135Z,7.77
2018-03-11T11:52:15.457Z,6.87
2018-03-11T11:54:43.785Z,6.37
2018-03-11T11:57:12.099Z,6.80
2018-03-11T11:59:41.076Z,6.87
2018-03-11T12:02:09.444Z,6.27
2018-03-11T12:04:38.656Z,7.37
2018-03-11T12:07:07.048Z,7.87
2018-03-11T12:09:35.368Z,5.77
2018-03-11T12:12:03.773Z,6.83
2018-03-11T12:14:32.185Z,6.40
2018-03-11T12:17:00.509Z,6.40
2018-03-11T12:19:28.842Z,6.87
2018-03-11T12:21:57.144Z,5.93
2018-03-11T12:24:25.497Z,6.50
2018-03-11T12:26:53.796Z,6.63
2018-03-11T12:29:22.125Z,5.43
2018-03-11T12:31:50.507Z,4.83
2018-03-11T12:34:18.845Z,5.60
2018-03-11T12:36:47.167Z,5.30
2018-03-11T12:39:15.570Z,5.77
2018-03-11T12:41:43.957Z,5.43
2018-03-11T12:44:12.652Z,4.97
2018-03-11T12:46:41.062Z,5.30
2018-03-11T12:49:09.439Z,5.83
2018-03-11T12:51:37.769Z,5.20
2018-03-11T12:54:06.147Z,6.00
2018-03-11T12:56:34.471Z,5.73
2018-03-11T12:59:02.781Z,6.23
2018-03-11T13:01:31.205Z,5.17
2018-03-11T13:03:59.587Z,5.30
2018-03-11T13:06:27.909Z,6.13
2018-03-11T13:08:56.241Z,6.13
2018-03-11T13:11:24.569Z,5.87
2018-03-11T13:13:52.883Z,6.30
2018-03-11T13:16:21.221Z,6.30
2018-03-11T13:18:49.531Z,6.40
2018-03-11T13:21:17.866Z,6.27
2018-03-11T13:23:46.180Z,6.40
2018-03-11T13:26:14.521Z,5.83
2018-03-11T13:28:52.934Z,5.80
2018-03-11T13:31:21.329Z,5.97
2018-03-11T13:34:01.490Z,5.93
2018-03-11T13:36:29.823Z,6.33
2018-03-11T13:39:10.145Z,6.70
2018-03-11T13:41:38.463Z,6.30
2018-03-11T13:44:06.785Z,5.57
2018-03-11T13:46:46.984Z,6.80
2018-03-11T13:49:15.277Z,7.80
2018-03-11T13:51:55.437Z,6.20
2018-03-11T13:54:24.380Z,5.87
2018-03-11T13:57:04.532Z,6.27
2018-03-11T13:59:32.870Z,6.60
2018-03-11T14:02:01.300Z,6.53
2018-03-11T14:04:29.634Z,6.27
2018-03-11T14:06:57.946Z,6.87
2018-03-11T14:09:26.269Z,6.70
2018-03-11T14:11:54.590Z,5.83
2018-03-11T14:14:22.936Z,6.80
2018-03-11T14:16:51.270Z,7.40
2018-03-11T14:19:19.835Z,7.33
2018-03-11T14:21:48.140Z,6.57
2018-03-11T14:24:16.497Z,7.30
2018-03-11T14:26:44.930Z,7.97
2018-03-11T14:29:13.237Z,7.60
2018-03-11T14:31:41.591Z,7.03
2018-03-11T14:34:09.913Z,7.77
2018-03-11T14:36:38.264Z,8.83
2018-03-11T14:39:06.583Z,7.73
2018-03-11T14:41:34.907Z,6.80
2018-03-11T14:44:03.227Z,7.67
2018-03-11T14:46:31.550Z,8.27
2018-03-11T14:48:59.894Z,8.60
2018-03-11T14:51:28.229Z,8.57
2018-03-11T14:53:56.536Z,8.67
2018-03-11T14:56:24.971Z,8.40
2018-03-11T14:58:53.312Z,8.83
2018-03-11T15:01:21.671Z,10.10
2018-03-11T15:03:50.004Z,9.07
2018-03-11T15:06:18.398Z,9.77
2018-03-11T15:08:46.704Z,10.90
2018-03-11T15:11:15.056Z,8.80
2018-03-11T15:13:43.382Z,9.33
2018-03-11T15:16:12.129Z,10.70
2018-03-11T15:18:40.539Z,9.60
2018-03-11T15:21:08.900Z,8.80
2018-03-11T15:23:37.314Z,10.07
2018-03-11T15:26:05.638Z,10.80
2018-03-11T15:28:33.973Z,10.30
2018-03-11T15:31:02.315Z,10.53
2018-03-11T15:33:30.732Z,10.80
2018-03-11T15:35:59.016Z,10.47
2018-03-11T15:38:27.351Z,9.23
2018-03-11T15:40:55.741Z,10.40
2018-03-11T15:43:24.102Z,10.03
2018-03-11T15:45:52.437Z,10.13
2018-03-11T15:48:20.790Z,10.30
2018-03-11T15:50:49.129Z,10.47
2018-03-11T15:53:17.472Z,10.10
2018-03-11T15:55:45.829Z,11.47
2018-03-11T15:58:14.158Z,11.30
2018-03-11T16:00:42.497Z,9.97
2018-03-11T16:03:10.847Z,11.63
2018-03-11T16:05:39.183Z,11.13
2018-03-11T16:08:07.508Z,12.07
2018-03-11T16:10:35.833Z,11.97
2018-03-11T16:13:04.188Z,14.00
2018-03-11T16:15:32.512Z,13.67
2018-03-11T16:18:00.862Z,14.10
2018-03-11T16:20:29.223Z,16.83
2018-03-11T16:22:57.528Z,17.73
2018-03-11T16:25:25.847Z,18.57
2018-03-11T16:27:54.245Z,15.20
2018-03-11T16:30:22.578Z,17.97
2018-03-11T16:32:50.930Z,18.03
2018-03-11T16:35:19.282Z,17.90
2018-03-11T16:37:47.605Z,17.97
2018-03-11T16:40:15.938Z,18.27
2018-03-11T16:42:44.285Z,18.57
2018-03-11T16:45:13.052Z,19.60
2018-03-11T16:47:41.374Z,20.70
2018-03-11T16:50:09.715Z,20.87
2018-03-11T16:52:38.078Z,21.70
2018-03-11T16:55:06.406Z,21.23
2018-03-11T16:57:34.726Z,19.57
2018-03-11T17:00:03.060Z,20.17
2018-03-11T17:02:31.385Z,21.80
2018-03-11T17:04:59.718Z,19.83
2018-03-11T17:07:28.051Z,22.90
2018-03-11T17:09:56.386Z,22.27
2018-03-11T17:12:24.719Z,22.50
2018-03-11T17:14:53.079Z,21.03
2018-03-11T17:17:21.540Z,22.17
2018-03-11T17:19:50.577Z,20.13
2018-03-11T17:22:18.985Z,21.33
2018-03-11T17:24:47.365Z,23.33
2018-03-11T17:27:15.688Z,20.70
2018-03-11T17:29:44.064Z,21.67
2018-03-11T17:32:12.402Z,20.87
2018-03-11T17:34:40.846Z,21.10
2018-03-11T17:37:09.183Z,20.83
2018-03-11T17:39:37.622Z,18.67
2018-03-11T17:42:05.955Z,20.63
2018-03-11T17:44:34.297Z,17.23
2018-03-11T17:47:02.631Z,18.67
2018-03-11T17:49:30.994Z,18.10
2018-03-11T17:51:59.377Z,18.77
2018-03-11T17:54:27.689Z,18.73
2018-03-11T17:56:56.039Z,17.87
2018-03-11T17:59:24.416Z,16.93
2018-03-11T18:01:52.742Z,16.70
2018-03-11T18:04:21.136Z,17.47
2018-03-11T18:06:49.457Z,17.37
2018-03-11T18:09:17.785Z,17.90
2018-03-11T18:11:46.136Z,16.87
2018-03-11T18:14:14.520Z,16.53
2018-03-11T18:16:42.876Z,14.87
2018-03-11T18:19:11.198Z,15.70
2018-03-11T18:21:39.547Z,14.83
2018-03-11T18:24:07.895Z,16.20
2018-03-11T18:26:37.245Z,13.43
2018-03-11T18:29:05.571Z,16.27
2018-03-11T18:31:33.916Z,14.93
2018-03-11T18:34:02.242Z,16.20
2018-03-11T18:36:30.570Z,15.17
2018-03-11T18:38:58.925Z,14.60
2018-03-11T18:41:27.347Z,15.27
2018-03-11T18:43:55.697Z,13.17
2018-03-11T18:46:24.026Z,16.63
2018-03-11T18:48:52.383Z,14.77
2018-03-11T18:51:20.719Z,13.00
2018-03-11T18:53:49.032Z,14.47
2018-03-11T18:56:17.376Z,13.73
2018-03-11T18:58:45.750Z,14.27
2018-03-11T19:01:14.079Z,13.47
2018-03-11T19:03:42.442Z,13.10
2018-03-11T19:06:10.808Z,13.10
2018-03-11T19:08:39.118Z,12.57
2018-03-11T19:11:07.457Z,14.57
2018-03-11T19:13:35.794Z,13.60
2018-03-11T19:16:04.166Z,12.47
2018-03-11T19:18:32.571Z,14.47
2018-03-11T19:21:00.886Z,13.70
2018-03-11T19:23:29.286Z,13.83
2018-03-11T19:25:57.608Z,12.60
2018-03-11T19:28:25.953Z,13.37
2018-03-11T19:30:54.288Z,12.70
2018-03-11T19:33:22.672Z,13.17
2018-03-11T19:35:51.099Z,13.57
2018-03-11T19:38:19.437Z,12.93
2018-03-11T19:40:47.771Z,11.70
2018-03-11T19:43:16.107Z,13.13
2018-03-11T19:45:44.456Z,12.97
2018-03-11T19:48:12.823Z,11.83
2018-03-11T19:50:41.254Z,12.93
2018-03-11T19:53:09.632Z,13.13
2018-03-11T19:55:38.032Z,13.30
2018-03-11T19:58:06.378Z,11.20
2018-03-11T20:00:34.757Z,12.77
2018-03-11T20:03:03.139Z,12.93
2018-03-11T20:05:31.463Z,11.97
2018-03-11T20:07:59.807Z,12.53
2018-03-11T20:10:28.152Z,11.70
2018-03-11T20:12:56.485Z,13.20
2018-03-11T20:15:24.821Z,12.23
2018-03-11T20:17:53.181Z,11.40
2018-03-11T20:20:21.524Z,13.27
2018-03-11T20:22:50.845Z,13.27
2018-03-11T20:25:19.202Z,12.90
2018-03-11T20:27:47.652Z,12.13
2018-03-11T20:30:16.315Z,13.03
2018-03-11T20:32:44.661Z,12.90
2018-03-11T20:35:12.994Z,12.63
2018-03-11T20:37:41.415Z,14.20
2018-03-11T20:40:13.463Z,13.37
2018-03-11T20:42:41.794Z,12.63
2018-03-11T20:45:11.049Z,13.97
2018-03-11T20:47:39.387Z,14.13
2018-03-11T20:50:07.840Z,12.10
2018-03-11T20:52:36.174Z,13.40
2018-03-11T20:55:04.485Z,13.47
2018-03-11T20:57:32.826Z,13.13
2018-03-11T21:00:01.364Z,13.00
2018-03-11T21:02:29.729Z,12.63
2018-03-11T21:04:58.113Z,13.03
2018-03-11T21:07:26.576Z,12.97
2018-03-11T21:09:54.899Z,13.40
2018-03-11T21:12:23.239Z,13.17
2018-03-11T21:14:51.629Z,13.43
2018-03-11T21:17:19.958Z,13.57
2018-03-11T21:19:48.276Z,13.67
2018-03-11T21:22:16.636Z,12.37
2018-03-11T21:24:44.982Z,13.97
2018-03-11T21:27:13.326Z,13.33
2018-03-11T21:29:41.673Z,13.20
2018-03-11T21:32:10.190Z,13.53
2018-03-11T21:34:38.533Z,13.57
2018-03-11T21:37:06.853Z,13.60
2018-03-11T21:39:35.310Z,13.63
2018-03-11T21:42:03.744Z,13.80
2018-03-11T21:44:32.160Z,13.40
2018-03-11T21:47:00.591Z,12.73
2018-03-11T21:49:28.935Z,14.60
2018-03-11T21:51:57.753Z,13.40
2018-03-11T21:54:26.157Z,15.23
2018-03-11T21:56:54.531Z,14.27
2018-03-11T21:59:22.925Z,13.40
2018-03-11T22:01:51.434Z,14.57
2018-03-11T22:04:19.758Z,14.47
2018-03-11T22:06:48.474Z,14.10
2018-03-11T22:09:16.803Z,14.73
2018-03-11T22:11:45.131Z,14.13
2018-03-11T22:14:13.517Z,12.77
2018-03-11T22:16:41.886Z,14.40
2018-03-11T22:19:10.230Z,14.20
2018-03-11T22:21:38.567Z,14.40
2018-03-11T22:24:06.909Z,14.50
2018-03-11T22:26:35.327Z,15.37
2018-03-11T22:29:03.678Z,13.10
2018-03-11T22:31:31.991Z,13.73
2018-03-11T22:34:07.105Z,15.33
2018-03-11T22:36:36.173Z,15.00
2018-03-11T22:39:04.490Z,13.40
2018-03-11T22:41:32.929Z,13.20
2018-03-11T22:44:01.357Z,15.03
2018-03-11T22:46:29.693Z,13.70
2018-03-11T22:48:58.032Z,13.20
2018-03-11T22:51:26.382Z,12.90
2018-03-11T22:53:54.706Z,14.23
2018-03-11T22:56:23.037Z,13.17
2018-03-11T22:58:51.367Z,14.20
2018-03-11T23:01:19.768Z,13.57
2018-03-11T23:03:48.171Z,14.73
2018-03-11T23:06:16.505Z,13.93
2018-03-11T23:08:44.825Z,13.63
2018-03-11T23:11:13.154Z,15.17
2018-03-11T23:13:41.482Z,13.07
2018-03-11T23:16:09.095Z,15.37
2018-03-11T23:18:49.152Z,13.67
2018-03-11T23:21:17.552Z,13.50
2018-03-11T23:23:45.868Z,14.57
2018-03-11T23:26:14.213Z,15.27
2018-03-11T23:28:42.526Z,13.67
2018-03-11T23:31:10.867Z,14.07
2018-03-11T23:33:39.179Z,13.47
2018-03-11T23:36:07.527Z,14.00
2018-03-11T23:38:35.855Z,15.13
2018-03-11T23:41:04.173Z,13.40
2018-03-11T23:43:32.583Z,14.77
2018-03-11T23:46:00.906Z,14.53
2018-03-11T23:48:29.355Z,13.27
2018-03-11T23:50:57.693Z,14.07
2018-03-11T23:53:26.032Z,14.10
2018-03-11T23:55:54.418Z,14.77
2018-03-11T23:58:22.921Z,15.87
